createdAt,value
2019-06-27T00:01:41.735Z,19.01
2019-06-27T00:04:11.409Z,18.98
2019-06-27T00:06:42.248Z,19.01
2019-06-27T00:09:13.225Z,19.03
2019-06-27T00:11:42.850Z,19.02
2019-06-27T00:14:12.863Z,19.05
2019-06-27T00:16:42.568Z,18.97
2019-06-27T00:19:12.237Z,18.91
2019-06-27T00:21:41.869Z,18.89
2019-06-27T00:24:11.525Z,18.84
2019-06-27T00:26:56.205Z,18.74
2019-06-27T00:29:13.595Z,18.62
2019-06-27T00:31:43.222Z,18.58
2019-06-27T00:34:13.888Z,18.54
2019-06-27T00:36:43.633Z,18.49
2019-06-27T00:39:15.287Z,18.46
2019-06-27T00:41:44.915Z,18.43
2019-06-27T00:44:14.507Z,18.40
2019-06-27T00:46:44.169Z,18.38
2019-06-27T00:49:13.945Z,18.29
2019-06-27T00:51:45.309Z,18.32
2019-06-27T00:54:15.208Z,18.28
2019-06-27T00:56:44.931Z,18.24
2019-06-27T00:59:14.527Z,18.20
2019-06-27T01:01:57.411Z,18.06
2019-06-27T01:04:27.161Z,18.06
2019-06-27T01:06:56.896Z,18.05
2019-06-27T01:09:26.626Z,18.13
2019-06-27T01:11:56.249Z,18.17
2019-06-27T01:14:28.496Z,18.22
2019-06-27T01:16:58.119Z,18.15
2019-06-27T01:19:27.754Z,18.08
2019-06-27T01:21:58.505Z,17.98
2019-06-27T01:24:28.269Z,17.92
2019-06-27T01:26:59.047Z,17.86
2019-06-27T01:29:31.889Z,17.89
2019-06-27T01:32:04.735Z,17.83
2019-06-27T01:34:35.382Z,17.79
2019-06-27T01:37:07.407Z,17.78
2019-06-27T01:39:37.481Z,17.79
2019-06-27T01:42:08.424Z,17.81
2019-06-27T01:44:49.469Z,17.70
2019-06-27T01:47:23.145Z,17.62
2019-06-27T01:49:52.768Z,17.60
2019-06-27T01:52:24.500Z,17.58
2019-06-27T01:54:54.186Z,17.58
2019-06-27T01:57:23.884Z,17.51
2019-06-27T02:00:00.429Z,17.54
2019-06-27T02:02:30.145Z,17.48
2019-06-27T02:04:59.797Z,17.45
2019-06-27T02:07:29.813Z,17.35
2019-06-27T02:10:00.417Z,17.26
2019-06-27T02:12:30.057Z,17.25
2019-06-27T02:14:59.708Z,17.22
2019-06-27T02:17:29.348Z,17.24
2019-06-27T02:19:59.330Z,17.17
2019-06-27T02:22:29.088Z,17.10
2019-06-27T02:24:58.734Z,17.08
2019-06-27T02:27:42.401Z,17.07
2019-06-27T02:30:13.323Z,17.12
2019-06-27T02:32:43.138Z,17.10
2019-06-27T02:35:12.995Z,17.10
2019-06-27T02:37:42.638Z,17.11
2019-06-27T02:40:13.479Z,17.21
2019-06-27T02:42:46.153Z,17.23
2019-06-27T02:45:16.247Z,17.10
2019-06-27T02:47:46.882Z,17.05
2019-06-27T02:50:16.540Z,17.02
2019-06-27T02:52:46.160Z,17.01
2019-06-27T02:55:15.846Z,16.96
2019-06-27T02:57:45.972Z,16.94
2019-06-27T03:00:16.196Z,16.93
2019-06-27T03:02:45.827Z,16.93
2019-06-27T03:05:16.996Z,16.97
2019-06-27T03:07:46.662Z,16.94
2019-06-27T03:10:18.577Z,16.92
2019-06-27T03:12:48.345Z,16.99
2019-06-27T03:15:19.149Z,16.92
2019-06-27T03:17:48.802Z,16.93
2019-06-27T03:20:18.896Z,16.90
2019-06-27T03:22:48.504Z,16.96
2019-06-27T03:25:18.109Z,16.97
2019-06-27T03:27:50.803Z,17.00
2019-06-27T03:30:21.474Z,16.99
2019-06-27T03:32:54.231Z,17.00
2019-06-27T03:35:24.018Z,17.00
2019-06-27T03:37:54.750Z,16.99
2019-06-27T03:40:24.433Z,16.94
2019-06-27T03:42:54.205Z,17.00
2019-06-27T03:45:23.972Z,16.93
2019-06-27T03:47:53.646Z,16.90
2019-06-27T03:50:30.372Z,16.88
2019-06-27T03:53:02.098Z,16.85
2019-06-27T03:55:31.861Z,16.80
2019-06-27T03:58:02.503Z,16.78
2019-06-27T04:00:34.426Z,16.74
2019-06-27T04:03:05.269Z,16.74
2019-06-27T04:05:35.007Z,16.77
2019-06-27T04:08:04.693Z,16.80
2019-06-27T04:10:34.695Z,16.70
2019-06-27T04:13:05.544Z,16.72
2019-06-27T04:15:35.640Z,16.80
2019-06-27T04:18:05.592Z,16.80
2019-06-27T04:20:35.272Z,16.80
2019-06-27T04:23:05.001Z,16.79
2019-06-27T04:25:34.673Z,16.87
2019-06-27T04:28:05.411Z,16.72
2019-06-27T04:30:35.101Z,16.69
2019-06-27T04:33:04.898Z,16.67
2019-06-27T04:35:35.485Z,16.66
2019-06-27T04:38:05.253Z,16.74
2019-06-27T04:40:35.097Z,16.85
2019-06-27T04:43:06.066Z,16.92
2019-06-27T04:45:36.026Z,16.95
2019-06-27T04:48:05.765Z,16.94
2019-06-27T04:50:35.518Z,16.97
2019-06-27T04:53:08.393Z,16.97
2019-06-27T04:55:40.026Z,16.93
2019-06-27T04:58:09.757Z,16.99
2019-06-27T05:00:52.130Z,16.94
2019-06-27T05:03:21.792Z,17.01
2019-06-27T05:05:51.527Z,17.02
2019-06-27T05:08:21.238Z,16.99
2019-06-27T05:10:50.898Z,16.95
2019-06-27T05:13:20.513Z,16.96
2019-06-27T05:15:50.204Z,16.93
2019-06-27T05:18:21.545Z,16.94
2019-06-27T05:20:51.193Z,16.96
2019-06-27T05:23:36.572Z,16.95
2019-06-27T05:25:57.479Z,16.92
2019-06-27T05:28:27.244Z,16.92
2019-06-27T05:30:57.010Z,16.89
2019-06-27T05:33:26.882Z,16.82
2019-06-27T05:36:04.402Z,16.79
2019-06-27T05:38:34.130Z,16.83
2019-06-27T05:41:03.948Z,16.87
2019-06-27T05:43:33.604Z,16.98
2019-06-27T05:46:03.298Z,17.12
2019-06-27T05:48:32.931Z,17.16
2019-06-27T05:51:02.586Z,17.24
2019-06-27T05:53:32.228Z,17.31
2019-06-27T05:56:01.888Z,17.45
2019-06-27T05:58:31.585Z,17.60
2019-06-27T06:01:01.261Z,17.61
2019-06-27T06:03:31.138Z,17.65
2019-06-27T06:06:00.847Z,17.69
2019-06-27T06:08:31.415Z,17.73
2019-06-27T06:11:01.045Z,17.73
2019-06-27T06:13:30.819Z,17.72
2019-06-27T06:16:01.302Z,17.90
2019-06-27T06:18:32.375Z,18.10
2019-06-27T06:21:02.100Z,18.33
2019-06-27T06:23:31.891Z,18.49
2019-06-27T06:26:01.492Z,18.52
2019-06-27T06:28:31.119Z,18.40
2019-06-27T06:31:01.858Z,18.29
2019-06-27T06:33:31.500Z,18.21
2019-06-27T06:36:01.253Z,18.04
2019-06-27T06:38:30.983Z,17.96
2019-06-27T06:41:00.699Z,17.73
2019-06-27T06:43:31.326Z,17.72
2019-06-27T06:46:00.986Z,17.93
2019-06-27T06:48:31.463Z,18.15
2019-06-27T06:51:01.180Z,18.25
2019-06-27T06:53:30.914Z,18.26
2019-06-27T06:56:00.555Z,18.25
2019-06-27T06:58:30.174Z,18.29
2019-06-27T07:01:02.095Z,18.19
2019-06-27T07:03:31.149Z,18.20
2019-06-27T07:06:00.914Z,18.29
2019-06-27T07:08:30.675Z,18.68
2019-06-27T07:11:00.400Z,19.10
2019-06-27T07:13:30.197Z,19.22
2019-06-27T07:15:59.837Z,19.30
2019-06-27T07:18:29.546Z,19.62
2019-06-27T07:20:59.315Z,19.95
2019-06-27T07:23:30.654Z,20.16
2019-06-27T07:26:00.357Z,20.60
2019-06-27T07:28:30.077Z,20.95
2019-06-27T07:30:59.815Z,21.07
2019-06-27T07:33:29.455Z,21.26
2019-06-27T07:36:00.383Z,21.29
2019-06-27T07:38:31.025Z,21.33
2019-06-27T07:41:00.726Z,21.17
2019-06-27T07:43:30.445Z,20.95
2019-06-27T07:46:00.259Z,20.91
2019-06-27T07:48:30.089Z,20.87
2019-06-27T07:51:00.082Z,20.79
2019-06-27T07:53:29.901Z,20.91
2019-06-27T07:55:59.672Z,21.07
2019-06-27T07:58:29.536Z,21.20
2019-06-27T08:00:59.256Z,21.32
2019-06-27T08:03:28.991Z,21.44
2019-06-27T08:05:58.705Z,21.93
2019-06-27T08:08:28.329Z,22.34
2019-06-27T08:10:57.972Z,22.52
2019-06-27T08:13:27.768Z,22.88
2019-06-27T08:15:57.716Z,23.39
2019-06-27T08:18:28.491Z,23.64
2019-06-27T08:20:58.296Z,23.37
2019-06-27T08:23:40.912Z,23.20
2019-06-27T08:26:00.309Z,23.48
2019-06-27T08:28:30.164Z,24.05
2019-06-27T08:31:00.079Z,24.46
2019-06-27T08:33:29.835Z,24.44
2019-06-27T08:36:00.925Z,24.04
2019-06-27T08:38:30.679Z,23.88
2019-06-27T08:41:01.031Z,23.76
2019-06-27T08:43:31.572Z,23.84
2019-06-27T08:46:01.216Z,23.46
2019-06-27T08:48:30.881Z,23.25
2019-06-27T08:51:01.182Z,23.31
2019-06-27T08:53:31.005Z,23.46
2019-06-27T08:56:00.704Z,23.46
2019-06-27T08:58:30.437Z,23.50
2019-06-27T09:01:00.114Z,23.62
2019-06-27T09:03:29.844Z,23.41
2019-06-27T09:06:05.896Z,23.03
2019-06-27T09:08:35.607Z,22.84
2019-06-27T09:11:05.385Z,22.20
2019-06-27T09:13:35.105Z,22.18
2019-06-27T09:16:04.987Z,22.73
2019-06-27T09:18:37.592Z,23.05
2019-06-27T09:21:07.816Z,23.22
2019-06-27T09:23:37.859Z,23.25
2019-06-27T09:26:08.162Z,23.35
2019-06-27T09:28:38.602Z,23.56
2019-06-27T09:31:12.289Z,23.20
2019-06-27T09:33:42.105Z,22.79
2019-06-27T09:36:12.051Z,22.63
2019-06-27T09:38:42.590Z,22.85
2019-06-27T09:41:12.502Z,23.37
2019-06-27T09:43:42.386Z,23.93
2019-06-27T09:46:12.580Z,24.07
2019-06-27T09:48:42.299Z,24.00
2019-06-27T09:51:11.937Z,23.19
2019-06-27T09:53:42.167Z,22.90
2019-06-27T09:56:11.960Z,22.72
2019-06-27T09:58:41.676Z,22.90
2019-06-27T10:01:11.590Z,23.17
2019-06-27T10:03:41.385Z,23.50
2019-06-27T10:06:11.129Z,24.02
2019-06-27T10:08:40.904Z,23.96
2019-06-27T10:11:11.638Z,23.85
2019-06-27T10:13:41.278Z,23.59
2019-06-27T10:16:11.011Z,23.58
2019-06-27T10:18:40.660Z,23.63
2019-06-27T10:21:10.381Z,23.29
2019-06-27T10:23:40.027Z,23.13
2019-06-27T10:26:11.377Z,22.77
2019-06-27T10:28:41.091Z,23.06
2019-06-27T10:31:10.755Z,23.28
2019-06-27T10:33:40.426Z,23.17
2019-06-27T10:36:10.391Z,23.14
2019-06-27T10:38:40.150Z,23.19
2019-06-27T10:41:09.800Z,23.17
2019-06-27T10:43:39.533Z,23.01
2019-06-27T10:46:10.238Z,23.00
2019-06-27T10:48:40.817Z,23.10
2019-06-27T10:51:10.447Z,23.12
2019-06-27T10:53:40.704Z,23.21
2019-06-27T10:56:14.413Z,23.22
2019-06-27T10:58:44.060Z,23.13
2019-06-27T11:01:13.736Z,23.21
2019-06-27T11:03:43.454Z,23.31
2019-06-27T11:06:13.148Z,23.08
2019-06-27T11:08:42.827Z,23.15
2019-06-27T11:11:12.454Z,23.33
2019-06-27T11:13:54.847Z,23.45
2019-06-27T11:16:13.802Z,23.60
2019-06-27T11:18:43.487Z,23.64
2019-06-27T11:21:14.092Z,23.84
2019-06-27T11:23:43.869Z,24.05
2019-06-27T11:26:16.095Z,23.94
2019-06-27T11:28:45.430Z,23.96
2019-06-27T11:31:15.066Z,23.78
2019-06-27T11:33:45.654Z,23.76
2019-06-27T11:36:16.935Z,23.75
2019-06-27T11:38:46.621Z,23.75
2019-06-27T11:41:16.221Z,23.76
2019-06-27T11:43:46.004Z,23.84
2019-06-27T11:46:15.746Z,23.81
2019-06-27T11:48:46.000Z,23.83
2019-06-27T11:51:15.713Z,23.75
2019-06-27T11:53:46.391Z,23.79
2019-06-27T11:56:16.337Z,23.89
2019-06-27T11:58:46.764Z,23.89
2019-06-27T12:01:16.958Z,23.96
2019-06-27T12:03:49.748Z,24.02
2019-06-27T12:06:18.741Z,24.01
2019-06-27T12:08:49.255Z,23.76
2019-06-27T12:11:19.690Z,23.76
2019-06-27T12:13:49.770Z,23.82
2019-06-27T12:16:19.823Z,23.81
2019-06-27T12:18:49.707Z,23.87
2019-06-27T12:21:19.987Z,23.97
2019-06-27T12:23:54.133Z,24.20
2019-06-27T12:26:24.006Z,24.20
2019-06-27T12:28:53.926Z,24.09
2019-06-27T12:31:24.071Z,24.07
2019-06-27T12:34:06.270Z,23.97
2019-06-27T12:36:26.051Z,24.10
2019-06-27T12:38:57.135Z,24.18
2019-06-27T12:41:27.573Z,24.13
2019-06-27T12:44:07.770Z,24.18
2019-06-27T12:46:37.840Z,24.16
2019-06-27T12:49:08.297Z,24.17
2019-06-27T12:51:38.424Z,24.20
2019-06-27T12:54:13.861Z,24.23
2019-06-27T12:56:44.061Z,24.29
2019-06-27T12:59:14.202Z,24.42
2019-06-27T13:01:47.608Z,24.40
2019-06-27T13:04:23.315Z,24.52
2019-06-27T13:06:49.327Z,24.48
2019-06-27T13:09:19.703Z,24.36
2019-06-27T13:11:51.734Z,24.33
2019-06-27T13:14:27.812Z,24.33
2019-06-27T13:16:57.620Z,24.46
2019-06-27T13:19:44.662Z,24.60
2019-06-27T13:22:14.402Z,24.55
2019-06-27T13:24:44.533Z,24.72
2019-06-27T13:27:14.919Z,24.79
2019-06-27T13:29:45.658Z,24.78
2019-06-27T13:32:15.953Z,24.69
2019-06-27T13:34:46.333Z,24.75
2019-06-27T13:37:16.101Z,24.79
2019-06-27T13:39:46.722Z,24.76
2019-06-27T13:42:16.594Z,24.83
2019-06-27T13:44:46.888Z,24.93
2019-06-27T13:47:20.088Z,24.93
2019-06-27T13:49:48.083Z,24.92
2019-06-27T13:52:19.108Z,24.90
2019-06-27T13:54:49.480Z,24.80
2019-06-27T13:57:19.386Z,24.87
2019-06-27T13:59:49.403Z,25.02
2019-06-27T14:02:20.118Z,24.89
2019-06-27T14:04:57.142Z,24.92
2019-06-27T14:07:22.609Z,25.05
2019-06-27T14:09:57.083Z,25.08
2019-06-27T14:12:24.954Z,25.11
2019-06-27T14:14:59.618Z,25.02
2019-06-27T14:17:26.763Z,25.11
2019-06-27T14:20:18.363Z,25.00
2019-06-27T14:22:48.485Z,24.96
2019-06-27T14:25:18.316Z,25.19
2019-06-27T14:27:48.082Z,25.26
2019-06-27T14:30:19.805Z,25.26
2019-06-27T14:32:53.157Z,25.13
2019-06-27T14:35:21.245Z,24.99
2019-06-27T14:37:51.117Z,25.07
2019-06-27T14:40:22.516Z,25.23
2019-06-27T14:42:53.216Z,25.41
2019-06-27T14:45:25.317Z,25.34
2019-06-27T14:47:56.742Z,25.33
2019-06-27T14:50:27.283Z,25.31
2019-06-27T14:52:57.674Z,25.10
2019-06-27T14:55:28.183Z,25.21
2019-06-27T14:57:58.541Z,25.34
2019-06-27T15:00:28.968Z,25.30
2019-06-27T15:02:58.841Z,25.54
2019-06-27T15:05:32.943Z,25.51
2019-06-27T15:08:01.309Z,25.43
2019-06-27T15:10:31.706Z,25.45
2019-06-27T15:13:02.014Z,25.46
2019-06-27T15:15:33.303Z,25.51
2019-06-27T15:18:03.589Z,25.52
2019-06-27T15:20:33.290Z,25.50
2019-06-27T15:23:03.498Z,25.53
2019-06-27T15:25:34.130Z,25.62
2019-06-27T15:28:04.408Z,25.70
2019-06-27T15:30:34.089Z,25.78
2019-06-27T15:33:03.905Z,25.75
2019-06-27T15:35:50.905Z,25.69
2019-06-27T15:38:05.829Z,25.61
2019-06-27T15:40:35.556Z,25.61
2019-06-27T15:43:05.305Z,25.59
2019-06-27T15:45:35.021Z,25.70
2019-06-27T15:48:04.931Z,25.72
2019-06-27T15:50:35.737Z,25.83
2019-06-27T15:53:06.111Z,25.90
2019-06-27T15:55:36.536Z,25.85
2019-06-27T15:58:07.206Z,25.89
2019-06-27T16:00:39.346Z,25.94
2019-06-27T16:03:08.517Z,26.03
2019-06-27T16:05:38.368Z,25.97
2019-06-27T16:08:08.387Z,25.90
2019-06-27T16:10:38.572Z,25.79
2019-06-27T16:13:08.465Z,25.75
2019-06-27T16:15:38.714Z,25.76
2019-06-27T16:18:09.208Z,25.69
2019-06-27T16:20:39.622Z,25.54
2019-06-27T16:23:09.368Z,25.56
2019-06-27T16:25:39.784Z,25.61
2019-06-27T16:28:10.573Z,25.67
2019-06-27T16:30:40.422Z,25.79
2019-06-27T16:33:10.177Z,25.60
2019-06-27T16:35:40.533Z,25.57
2019-06-27T16:38:11.105Z,25.56
2019-06-27T16:40:40.873Z,25.37
2019-06-27T16:43:12.353Z,25.30
2019-06-27T16:45:42.699Z,25.39
2019-06-27T16:48:13.176Z,25.38
2019-06-27T16:50:43.504Z,25.47
2019-06-27T16:53:14.301Z,25.38
2019-06-27T16:55:46.596Z,25.45
2019-06-27T16:58:16.832Z,25.50
2019-06-27T17:00:46.791Z,25.61
2019-06-27T17:03:16.473Z,25.60
2019-06-27T17:05:47.017Z,25.58
2019-06-27T17:08:16.951Z,25.41
2019-06-27T17:10:47.288Z,25.34
2019-06-27T17:13:17.599Z,25.32
2019-06-27T17:15:47.902Z,25.27
2019-06-27T17:18:17.794Z,25.26
2019-06-27T17:20:47.476Z,25.24
2019-06-27T17:23:17.797Z,25.16
2019-06-27T17:25:47.614Z,25.09
2019-06-27T17:28:17.276Z,24.96
2019-06-27T17:30:47.162Z,24.97
2019-06-27T17:33:17.507Z,24.88
2019-06-27T17:35:47.898Z,24.72
2019-06-27T17:38:18.358Z,24.72
2019-06-27T17:40:48.197Z,24.53
2019-06-27T17:43:18.522Z,24.42
2019-06-27T17:45:48.860Z,24.26
2019-06-27T17:48:18.687Z,24.32
2019-06-27T17:50:48.434Z,24.30
2019-06-27T17:53:18.666Z,24.34
2019-06-27T17:55:48.996Z,24.22
2019-06-27T17:58:18.728Z,24.00
2019-06-27T18:00:49.414Z,23.92
2019-06-27T18:03:19.747Z,23.90
2019-06-27T18:05:50.365Z,23.81
2019-06-27T18:08:20.149Z,23.78
2019-06-27T18:10:49.870Z,23.85
2019-06-27T18:13:19.585Z,23.73
2019-06-27T18:15:49.232Z,23.65
2019-06-27T18:18:19.570Z,23.53
2019-06-27T18:20:49.778Z,23.57
2019-06-27T18:23:19.455Z,23.47
2019-06-27T18:25:49.262Z,23.32
2019-06-27T18:28:19.614Z,23.35
2019-06-27T18:30:49.315Z,23.32
2019-06-27T18:33:19.007Z,23.37
2019-06-27T18:35:48.802Z,23.40
2019-06-27T18:38:19.126Z,23.38
2019-06-27T18:40:49.431Z,23.19
2019-06-27T18:43:19.112Z,23.14
2019-06-27T18:45:48.960Z,22.94
2019-06-27T18:48:18.714Z,23.00
2019-06-27T18:50:49.456Z,22.98
2019-06-27T18:53:19.222Z,23.04
2019-06-27T18:55:49.544Z,23.05
2019-06-27T18:58:19.223Z,22.92
2019-06-27T19:00:49.677Z,22.87
2019-06-27T19:03:20.231Z,22.66
2019-06-27T19:05:54.663Z,22.52
2019-06-27T19:08:54.102Z,22.56
2019-06-27T19:11:24.274Z,22.39
2019-06-27T19:13:58.583Z,22.30
2019-06-27T19:16:31.729Z,22.22
2019-06-27T19:19:11.500Z,22.06
2019-06-27T19:21:42.771Z,21.96
2019-06-27T19:24:15.213Z,21.91
2019-06-27T19:26:46.842Z,21.78
2019-06-27T19:29:16.598Z,21.82
2019-06-27T19:31:46.476Z,21.82
2019-06-27T19:34:16.463Z,21.81
2019-06-27T19:36:46.187Z,21.76
2019-06-27T19:39:16.098Z,21.70
2019-06-27T19:41:46.073Z,21.63
2019-06-27T19:44:15.886Z,21.57
2019-06-27T19:46:45.600Z,21.49
2019-06-27T19:49:15.422Z,21.40
2019-06-27T19:51:45.339Z,21.33
2019-06-27T19:54:15.262Z,21.33
2019-06-27T19:56:45.053Z,21.29
2019-06-27T19:59:14.813Z,21.23
2019-06-27T20:01:44.733Z,21.16
2019-06-27T20:04:14.428Z,21.09
2019-06-27T20:06:44.205Z,21.00
2019-06-27T20:09:13.871Z,20.96
2019-06-27T20:11:43.645Z,20.92
2019-06-27T20:14:13.671Z,20.87
2019-06-27T20:16:43.399Z,20.77
2019-06-27T20:19:13.496Z,20.69
2019-06-27T20:21:43.110Z,20.64
2019-06-27T20:24:12.822Z,20.60
2019-06-27T20:26:42.589Z,20.54
2019-06-27T20:29:12.234Z,20.53
2019-06-27T20:31:41.941Z,20.52
2019-06-27T20:34:11.554Z,20.47
2019-06-27T20:36:41.227Z,20.46
2019-06-27T20:39:10.884Z,20.42
2019-06-27T20:41:40.513Z,20.38
2019-06-27T20:44:10.224Z,20.34
2019-06-27T20:46:39.956Z,20.27
2019-06-27T20:49:09.661Z,20.24
2019-06-27T20:51:39.345Z,20.21
2019-06-27T20:54:12.098Z,20.19
2019-06-27T20:56:40.520Z,20.17
2019-06-27T20:59:10.559Z,20.10
2019-06-27T21:01:40.333Z,20.04
2019-06-27T21:04:09.993Z,19.98
2019-06-27T21:06:39.718Z,19.96
2019-06-27T21:09:09.539Z,19.93
2019-06-27T21:11:39.148Z,19.83
2019-06-27T21:14:09.412Z,19.72
2019-06-27T21:16:39.196Z,19.65
2019-06-27T21:19:08.947Z,19.63
2019-06-27T21:21:38.655Z,19.59
2019-06-27T21:24:08.418Z,19.53
2019-06-27T21:26:38.678Z,19.45
2019-06-27T21:29:08.447Z,19.35
2019-06-27T21:31:38.177Z,19.29
2019-06-27T21:34:07.886Z,19.15
2019-06-27T21:36:37.654Z,19.05
2019-06-27T21:39:08.217Z,19.07
2019-06-27T21:41:37.986Z,18.93
2019-06-27T21:44:07.786Z,18.86
2019-06-27T21:46:37.507Z,18.85
2019-06-27T21:49:11.228Z,18.88
2019-06-27T21:51:39.328Z,18.91
2019-06-27T21:54:09.043Z,18.87
2019-06-27T21:56:38.785Z,18.84
2019-06-27T21:59:08.461Z,18.82
2019-06-27T22:01:38.368Z,18.71
2019-06-27T22:04:08.176Z,18.60
2019-06-27T22:06:37.844Z,18.57
2019-06-27T22:09:23.439Z,18.57
2019-06-27T22:11:40.327Z,18.51
2019-06-27T22:14:10.879Z,18.49
2019-06-27T22:16:40.657Z,18.49
2019-06-27T22:19:10.442Z,18.49
2019-06-27T22:21:40.209Z,18.39
2019-06-27T22:24:09.863Z,18.31
2019-06-27T22:26:39.669Z,18.31
2019-06-27T22:29:09.360Z,18.23
2019-06-27T22:31:39.083Z,18.11
2019-06-27T22:34:08.870Z,18.04
2019-06-27T22:36:38.791Z,17.96
2019-06-27T22:39:39.602Z,17.94
2019-06-27T22:42:15.375Z,17.91
2019-06-27T22:45:02.935Z,17.88
2019-06-27T22:47:50.641Z,17.77
2019-06-27T22:50:35.956Z,17.71
2019-06-27T22:53:07.581Z,17.63
2019-06-27T22:55:37.479Z,17.56
2019-06-27T22:58:07.375Z,17.43
2019-06-27T23:00:38.304Z,17.37
2019-06-27T23:03:08.115Z,17.26
2019-06-27T23:05:38.004Z,17.18
2019-06-27T23:08:07.939Z,17.13
2019-06-27T23:10:37.780Z,17.09
2019-06-27T23:13:07.582Z,17.09
2019-06-27T23:15:38.004Z,17.04
2019-06-27T23:18:07.674Z,17.00
2019-06-27T23:20:37.489Z,16.99
2019-06-27T23:23:07.090Z,16.97
2019-06-27T23:25:37.402Z,17.02
2019-06-27T23:28:07.473Z,16.98
2019-06-27T23:30:37.251Z,16.87
2019-06-27T23:33:06.919Z,16.88
2019-06-27T23:35:36.756Z,16.75
2019-06-27T23:38:06.577Z,16.67
2019-06-27T23:40:36.300Z,16.66
2019-06-27T23:43:06.099Z,16.64
2019-06-27T23:45:35.708Z,16.64
2019-06-27T23:48:05.581Z,16.66
2019-06-27T23:50:35.349Z,16.69
2019-06-27T23:53:05.210Z,16.71
2019-06-27T23:55:34.915Z,16.62
2019-06-27T23:58:04.760Z,16.58
